Time;durP1;ratioP1;P1;durP2;ratioP2;P2;SDS_P1;SDS_P2;PMS_P1;PMS_P2;Temp;Humidity;BMP_temperature;BMP_pressure;BME280_temperature;BME280_humidity;BME280_pressure;Samples;Min_cycle;Max_cycle;Signal;HPM_P1;HPM_P2
2021/09/22 00:00:21;;;;;;;21.37;17.03;;;;;;;7.14;100.00;97402.84;4965392;28;20035;-78
2021/09/22 00:02:46;;;;;;;17.90;13.63;;;;;;;7.26;100.00;97404.59;4962128;28;20037;-78
2021/09/22 00:05:13;;;;;;;18.30;14.30;;;;;;;7.29;100.00;97404.38;4957095;28;20027;-78
2021/09/22 00:07:40;;;;;;;20.27;14.33;;;;;;;7.30;100.00;97408.66;4977873;28;20035;-78
2021/09/22 00:10:09;;;;;;;21.40;16.67;;;;;;;7.19;100.00;97413.84;4972381;28;20022;-77
2021/09/22 00:12:36;;;;;;;20.73;16.07;;;;;;;7.21;100.00;97406.72;4992769;28;20030;-77
2021/09/22 00:15:04;;;;;;;18.87;14.40;;;;;;;7.26;100.00;97409.84;4957273;28;20031;-78
2021/09/22 00:17:30;;;;;;;22.80;16.00;;;;;;;7.24;100.00;97405.66;4962028;28;20027;-77
2021/09/22 00:19:56;;;;;;;21.33;15.33;;;;;;;7.14;100.00;97405.47;4983630;28;20053;-78
2021/09/22 00:22:23;;;;;;;20.20;16.50;;;;;;;6.91;100.00;97408.88;4986859;28;20034;-78
2021/09/22 00:24:49;;;;;;;22.07;16.13;;;;;;;6.95;100.00;97408.56;4977243;28;20019;-78
2021/09/22 00:27:15;;;;;;;18.13;14.97;;;;;;;6.92;100.00;97410.56;5004839;28;20042;-78
2021/09/22 00:29:41;;;;;;;18.90;14.60;;;;;;;6.85;100.00;97405.75;4994088;28;20027;-78
2021/09/22 00:32:08;;;;;;;17.63;14.23;;;;;;;6.96;100.00;97404.16;4950279;28;20731;-78
2021/09/22 00:34:34;;;;;;;17.10;13.50;;;;;;;6.96;100.00;97396.31;4952959;28;20030;-78
2021/09/22 00:37:00;;;;;;;20.17;14.80;;;;;;;6.82;100.00;97392.06;4967302;28;20082;-77
2021/09/22 00:39:27;;;;;;;21.70;13.47;;;;;;;6.64;100.00;97383.75;4949346;28;20034;-77
2021/09/22 00:41:54;;;;;;;20.07;14.17;;;;;;;6.70;100.00;97383.28;4954877;28;20031;-77
2021/09/22 00:44:20;;;;;;;18.03;13.93;;;;;;;6.75;100.00;97388.22;4951127;28;20563;-78
2021/09/22 00:46:45;;;;;;;19.57;13.70;;;;;;;6.80;100.00;97393.94;4972171;28;20150;-78
2021/09/22 00:49:11;;;;;;;19.37;13.27;;;;;;;6.81;100.00;97391.22;4989341;28;20039;-77
2021/09/22 00:51:43;;;;;;;19.63;13.23;;;;;;;6.96;100.00;97386.69;4981511;28;20039;-78
2021/09/22 00:54:22;;;;;;;17.57;12.70;;;;;;;6.90;100.00;97383.66;4956122;28;20034;-78
2021/09/22 00:56:50;;;;;;;17.50;12.73;;;;;;;6.74;100.00;97382.16;4949595;28;20677;-78
2021/09/22 00:59:16;;;;;;;16.53;13.40;;;;;;;6.65;100.00;97382.78;4955369;28;20026;-78
2021/09/22 01:01:47;;;;;;;16.83;12.80;;;;;;;6.60;100.00;97375.25;4967231;28;20030;-78
2021/09/22 01:04:13;;;;;;;18.03;13.97;;;;;;;6.61;100.00;97383.94;4969138;28;20532;-78
2021/09/22 01:06:39;;;;;;;19.00;13.57;;;;;;;6.60;100.00;97379.63;4970864;28;20054;-78
2021/09/22 01:09:05;;;;;;;15.37;12.53;;;;;;;6.58;100.00;97381.53;4988368;28;20393;-79
2021/09/22 01:11:33;;;;;;;14.63;11.73;;;;;;;6.55;100.00;97379.13;4972735;28;20037;-78
2021/09/22 01:14:00;;;;;;;18.27;12.67;;;;;;;6.43;100.00;97380.81;4956706;28;20035;-78
2021/09/22 01:16:26;;;;;;;16.83;11.80;;;;;;;6.48;100.00;97377.91;4986014;28;20081;-78
2021/09/22 01:18:52;;;;;;;16.77;12.67;;;;;;;6.42;100.00;97373.09;4988584;28;20504;-78
2021/09/22 01:21:21;;;;;;;16.20;11.93;;;;;;;6.46;100.00;97382.38;5008204;28;20030;-78
2021/09/22 01:23:52;;;;;;;17.37;11.43;;;;;;;6.46;100.00;97387.59;4965814;28;20031;-78
2021/09/22 01:26:18;;;;;;;15.63;11.23;;;;;;;6.58;100.00;97390.22;4981863;28;20101;-78
2021/09/22 01:28:43;;;;;;;14.27;10.37;;;;;;;6.49;100.00;97396.06;4972515;28;20053;-78
2021/09/22 01:31:09;;;;;;;16.83;12.27;;;;;;;6.55;100.00;97398.25;4963751;28;20125;-78
2021/09/22 01:33:36;;;;;;;17.43;12.47;;;;;;;6.63;100.00;97389.88;4981033;28;20485;-78
2021/09/22 01:36:11;;;;;;;14.47;11.23;;;;;;;6.63;100.00;97395.09;4952586;28;20071;-78
2021/09/22 01:38:37;;;;;;;16.80;10.83;;;;;;;6.61;100.00;97399.63;4947004;28;20034;-78
2021/09/22 01:41:13;;;;;;;14.77;11.13;;;;;;;6.57;100.00;97390.31;4954262;28;20027;-78
2021/09/22 01:43:51;;;;;;;18.07;11.27;;;;;;;6.47;100.00;97394.50;4987139;28;20035;-78
2021/09/22 01:46:20;;;;;;;15.53;11.97;;;;;;;6.36;100.00;97397.84;4965494;28;20593;-78
2021/09/22 01:48:48;;;;;;;16.07;12.27;;;;;;;6.31;100.00;97384.28;4954235;28;20023;-78
2021/09/22 01:51:14;;;;;;;16.80;12.27;;;;;;;6.23;100.00;97376.94;4971730;28;20027;-78
2021/09/22 01:54:15;;;;;;;16.30;12.17;;;;;;;6.19;100.00;97375.47;4978141;28;20034;-78
2021/09/22 01:56:49;;;;;;;14.83;11.80;;;;;;;6.21;100.00;97371.00;4968291;28;20910;-78
2021/09/22 01:59:16;;;;;;;16.30;13.00;;;;;;;6.19;100.00;97383.31;4974698;28;20030;-78
2021/09/22 02:02:00;;;;;;;16.50;12.37;;;;;;;6.18;100.00;97389.50;4983094;28;20033;-78
2021/09/22 02:04:43;;;;;;;15.77;11.97;;;;;;;6.27;100.00;97391.47;4964802;28;20042;-78
2021/09/22 02:07:13;;;;;;;18.03;12.80;;;;;;;6.31;100.00;97389.50;4956607;28;20066;-78
2021/09/22 02:09:39;;;;;;;18.80;13.80;;;;;;;6.37;100.00;97379.47;4977350;28;20039;-78
2021/09/22 02:12:06;;;;;;;16.57;13.17;;;;;;;6.35;100.00;97383.94;4979958;28;20495;-79
2021/09/22 02:14:33;;;;;;;15.60;11.97;;;;;;;6.35;100.00;97383.13;4973770;28;20066;-78
2021/09/22 02:16:59;;;;;;;17.67;12.53;;;;;;;6.35;100.00;97376.13;4974068;28;20023;-78
2021/09/22 02:19:28;;;;;;;16.90;12.60;;;;;;;6.27;100.00;97383.66;5000729;28;20034;-78
2021/09/22 02:22:15;;;;;;;17.83;14.13;;;;;;;6.12;100.00;97384.66;4972789;28;20046;-78
2021/09/22 02:24:56;;;;;;;20.57;13.77;;;;;;;6.08;100.00;97381.44;4982314;28;20041;-78
2021/09/22 02:27:22;;;;;;;19.23;13.53;;;;;;;5.97;100.00;97375.25;4963766;28;20656;-78
2021/09/22 02:29:48;;;;;;;18.63;13.67;;;;;;;5.95;100.00;97371.91;4981217;28;20042;-78
2021/09/22 02:32:14;;;;;;;16.73;12.83;;;;;;;5.95;100.00;97362.31;4989337;28;20043;-78
2021/09/22 02:34:42;;;;;;;16.90;12.47;;;;;;;6.09;100.00;97349.16;4961235;28;20111;-78
2021/09/22 02:37:08;;;;;;;16.30;11.70;;;;;;;6.02;100.00;97350.50;4973474;28;20061;-78
2021/09/22 02:39:44;;;;;;;16.07;12.17;;;;;;;6.01;100.00;97350.63;4980053;28;20114;-78
2021/09/22 02:42:09;;;;;;;20.77;12.23;;;;;;;6.11;100.00;97365.56;4978620;28;20039;-78
2021/09/22 02:44:37;;;;;;;16.43;12.20;;;;;;;5.82;100.00;97366.63;4998382;28;20427;-79
2021/09/22 02:47:03;;;;;;;18.87;12.20;;;;;;;5.74;100.00;97364.53;4956141;28;20117;-77
2021/09/22 02:49:29;;;;;;;17.53;11.93;;;;;;;5.81;100.00;97368.41;4980295;28;20023;-78
2021/09/22 02:51:59;;;;;;;14.97;11.83;;;;;;;5.85;100.00;97371.66;4998513;28;20034;-78
2021/09/22 02:54:25;;;;;;;15.60;11.80;;;;;;;5.80;100.00;97369.38;4976953;28;20216;-78
2021/09/22 02:57:06;;;;;;;15.27;11.57;;;;;;;5.76;100.00;97367.88;4976488;28;20022;-78
2021/09/22 02:59:32;;;;;;;15.70;11.23;;;;;;;5.69;100.00;97371.81;4985673;28;20492;-78
2021/09/22 03:01:59;;;;;;;14.60;11.30;;;;;;;5.73;100.00;97378.50;5005660;28;20432;-78
2021/09/22 03:04:25;;;;;;;18.33;13.33;;;;;;;5.61;100.00;97377.56;4975580;28;20030;-78
2021/09/22 03:06:51;;;;;;;17.60;13.03;;;;;;;5.70;100.00;97383.09;4995029;28;21470;-78
2021/09/22 03:09:17;;;;;;;15.27;12.00;;;;;;;5.59;100.00;97381.19;4986908;28;20031;-78
2021/09/22 03:11:43;;;;;;;18.83;13.67;;;;;;;5.53;100.00;97386.81;4963942;28;20135;-78
2021/09/22 03:14:09;;;;;;;17.77;12.57;;;;;;;5.46;100.00;97381.16;4980554;28;20042;-78
2021/09/22 03:16:40;;;;;;;18.17;12.63;;;;;;;5.46;100.00;97385.53;4994006;28;20019;-78
2021/09/22 03:19:07;;;;;;;16.00;12.53;;;;;;;5.31;100.00;97379.56;4982453;28;20019;-78
2021/09/22 03:21:33;;;;;;;26.30;20.27;;;;;;;5.26;100.00;97374.59;4981279;28;20049;-78
2021/09/22 03:23:59;;;;;;;21.23;15.50;;;;;;;5.35;100.00;97379.25;4971750;28;20399;-78
2021/09/22 03:26:26;;;;;;;19.10;13.20;;;;;;;5.44;100.00;97373.44;4995390;28;20022;-78
2021/09/22 03:28:52;;;;;;;16.97;11.70;;;;;;;5.46;100.00;97375.09;4964521;28;20145;-78
2021/09/22 03:31:19;;;;;;;17.70;13.60;;;;;;;5.50;100.00;97376.56;4970186;28;20030;-78
2021/09/22 03:33:44;;;;;;;32.77;24.47;;;;;;;5.47;100.00;97368.97;4973494;28;20026;-78
2021/09/22 03:36:11;;;;;;;28.37;21.93;;;;;;;5.47;100.00;97379.41;4972908;28;20034;-78
2021/09/22 03:38:37;;;;;;;33.20;25.60;;;;;;;5.40;100.00;97392.00;4968144;28;20109;-78
2021/09/22 03:41:04;;;;;;;20.50;13.87;;;;;;;5.44;100.00;97386.47;4965088;28;20109;-78
2021/09/22 03:43:30;;;;;;;25.57;19.87;;;;;;;5.51;100.00;97384.31;4978341;28;20034;-78
2021/09/22 03:45:55;;;;;;;21.07;16.87;;;;;;;5.54;100.00;97394.56;4985793;28;20049;-78
2021/09/22 03:48:22;;;;;;;18.50;13.83;;;;;;;5.56;100.00;97394.44;4969382;28;20066;-78
2021/09/22 03:50:48;;;;;;;17.53;12.97;;;;;;;5.60;100.00;97390.69;4979015;28;20029;-78
2021/09/22 03:53:31;;;;;;;16.23;12.13;;;;;;;5.62;100.00;97400.09;4986656;28;20034;-78
2021/09/22 03:55:57;;;;;;;16.60;11.97;;;;;;;5.59;100.00;97399.47;4965672;28;20614;-78
2021/09/22 03:58:23;;;;;;;15.97;11.43;;;;;;;5.56;100.00;97403.09;4973920;28;20498;-78
2021/09/22 04:00:48;;;;;;;17.63;11.93;;;;;;;5.39;100.00;97400.75;4961847;28;20821;-78
2021/09/22 04:03:15;;;;;;;18.00;12.07;;;;;;;5.21;100.00;97408.00;4977778;28;20014;-78
2021/09/22 04:05:41;;;;;;;17.17;11.33;;;;;;;5.09;100.00;97399.16;4983974;28;20034;-78
2021/09/22 04:08:07;;;;;;;16.87;12.43;;;;;;;5.01;100.00;97405.81;4978958;28;20370;-78
2021/09/22 04:10:38;;;;;;;14.87;11.47;;;;;;;5.05;100.00;97399.44;4992556;28;20080;-78
2021/09/22 04:13:04;;;;;;;17.23;12.43;;;;;;;5.16;100.00;97404.81;4995437;28;20066;-78
2021/09/22 04:15:35;;;;;;;15.40;11.23;;;;;;;5.13;100.00;97403.25;4984759;28;20117;-78
2021/09/22 04:18:01;;;;;;;15.87;12.33;;;;;;;5.15;100.00;97397.94;4965127;28;20034;-80
2021/09/22 04:20:28;;;;;;;16.37;12.00;;;;;;;5.29;100.00;97399.66;4981902;28;20056;-77
2021/09/22 04:22:54;;;;;;;17.83;12.47;;;;;;;5.08;100.00;97399.25;4976501;28;20057;-78
2021/09/22 04:25:20;;;;;;;19.07;12.33;;;;;;;5.17;100.00;97401.28;4969211;28;20027;-78
2021/09/22 04:27:59;;;;;;;16.07;12.20;;;;;;;5.24;100.00;97402.59;4979631;28;20041;-78
2021/09/22 04:30:43;;;;;;;15.53;11.10;;;;;;;5.19;100.00;97404.63;4983820;28;20050;-78
2021/09/22 04:33:28;;;;;;;18.43;12.40;;;;;;;5.11;100.00;97402.50;4964221;28;20082;-78
2021/09/22 04:36:13;;;;;;;16.83;12.40;;;;;;;5.09;100.00;97401.75;4976538;28;20105;-78
2021/09/22 04:38:58;;;;;;;16.83;12.67;;;;;;;5.13;100.00;97399.78;4967627;28;20519;-78
2021/09/22 04:41:42;;;;;;;18.30;12.30;;;;;;;5.10;100.00;97400.84;4972907;28;20758;-78
2021/09/22 04:44:27;;;;;;;16.47;11.70;;;;;;;5.19;100.00;97407.22;4968477;28;20396;-77
2021/09/22 04:47:11;;;;;;;16.60;12.27;;;;;;;5.06;100.00;97403.72;4964594;28;20046;-78
2021/09/22 04:49:57;;;;;;;18.17;12.10;;;;;;;5.01;100.00;97409.25;4966562;28;20093;-78
2021/09/22 04:52:42;;;;;;;17.93;13.20;;;;;;;5.03;100.00;97403.91;4977310;28;20538;-77
2021/09/22 04:55:26;;;;;;;19.03;13.27;;;;;;;5.05;100.00;97402.06;4981631;28;20048;-78
2021/09/22 04:58:11;;;;;;;18.20;12.37;;;;;;;5.17;100.00;97396.09;4981472;28;20045;-78
2021/09/22 05:00:59;;;;;;;17.47;11.70;;;;;;;5.28;100.00;97398.84;4981083;28;20546;-77
2021/09/22 05:03:43;;;;;;;17.57;11.27;;;;;;;5.33;100.00;97409.81;4974866;28;20048;-77
2021/09/22 05:06:28;;;;;;;15.87;11.80;;;;;;;5.32;100.00;97404.69;4974701;28;20069;-78
2021/09/22 05:09:12;;;;;;;14.97;10.53;;;;;;;5.26;100.00;97408.50;4990814;28;20609;-78
2021/09/22 05:11:57;;;;;;;16.67;12.27;;;;;;;5.26;100.00;97405.91;4973053;28;20780;-78
2021/09/22 05:14:41;;;;;;;15.73;12.37;;;;;;;5.15;100.00;97404.00;4977098;28;20096;-78
2021/09/22 05:17:26;;;;;;;15.43;10.67;;;;;;;5.15;100.00;97406.59;4976747;28;20045;-79
2021/09/22 05:20:11;;;;;;;13.70;10.93;;;;;;;5.12;100.00;97416.38;4975128;28;20522;-78
2021/09/22 05:22:55;;;;;;;15.13;11.03;;;;;;;5.16;100.00;97415.25;4971700;28;20053;-78
2021/09/22 05:25:40;;;;;;;18.13;10.90;;;;;;;5.10;100.00;97416.50;4985941;28;20043;-78
2021/09/22 05:28:24;;;;;;;14.50;10.87;;;;;;;5.00;100.00;97419.75;4977582;28;20400;-78
2021/09/22 05:31:29;;;;;;;;;;;;;;;4.99;100.00;97418.09;4964936;28;20055;-78
2021/09/22 05:34:13;;;;;;;17.58;11.57;;;;;;;5.11;100.00;97412.09;4957015;28;19925;-78
2021/09/22 05:36:59;;;;;;;15.53;11.77;;;;;;;5.20;100.00;97414.16;4975714;28;20124;-78
2021/09/22 05:39:44;;;;;;;17.30;11.93;;;;;;;5.26;100.00;97420.72;4957542;28;20519;-79
2021/09/22 05:42:28;;;;;;;15.07;11.20;;;;;;;5.44;100.00;97414.34;4970018;28;20046;-77
2021/09/22 05:45:14;;;;;;;16.47;12.17;;;;;;;5.41;100.00;97412.78;4970598;28;20050;-78
2021/09/22 05:47:58;;;;;;;18.17;12.83;;;;;;;5.47;100.00;97423.75;4979711;28;20427;-78
2021/09/22 05:50:43;;;;;;;15.17;11.50;;;;;;;5.63;100.00;97422.69;4982510;28;20086;-77
2021/09/22 05:53:27;;;;;;;16.97;12.20;;;;;;;5.78;100.00;97418.22;4981876;28;20064;-78
2021/09/22 05:56:12;;;;;;;15.53;10.83;;;;;;;5.93;100.00;97415.56;4982816;28;20429;-79
2021/09/22 05:58:56;;;;;;;15.17;11.47;;;;;;;6.13;100.00;97418.50;4982426;28;20093;-78
2021/09/22 06:01:57;;;;;;;14.67;10.73;;;;;;;6.26;100.00;97408.06;4990077;28;20042;-78
2021/09/22 06:05:02;;;;;;;14.87;10.80;;;;;;;6.45;100.00;97412.91;4911429;29;20040;-78
2021/09/22 06:07:48;;;;;;;15.93;11.83;;;;;;;6.14;100.00;97414.16;4926105;28;20039;-78
2021/09/22 06:10:33;;;;;;;14.70;11.27;;;;;;;6.09;100.00;97418.81;4975786;28;20041;-78
2021/09/22 06:13:13;;;;;;;15.60;11.70;;;;;;;6.46;99.87;97418.97;4997977;28;20031;-78
2021/09/22 06:15:40;;;;;;;19.73;13.67;;;;;;;6.79;98.34;97415.81;4971094;28;20031;-78
2021/09/22 06:18:07;;;;;;;18.47;13.60;;;;;;;6.99;96.70;97417.03;4974024;28;20027;-78
2021/09/22 06:20:33;;;;;;;15.87;11.13;;;;;;;6.89;97.67;97422.06;4996526;28;20046;-79
2021/09/22 06:22:59;;;;;;;14.50;11.33;;;;;;;7.21;95.30;97411.97;4980517;28;20061;-79
2021/09/22 06:25:25;;;;;;;16.57;11.37;;;;;;;7.58;93.83;97409.31;4982371;28;20031;-78
2021/09/22 06:27:51;;;;;;;14.43;10.63;;;;;;;7.84;91.43;97414.41;4995118;28;20028;-77
2021/09/22 06:30:17;;;;;;;17.40;12.47;;;;;;;7.62;93.63;97405.50;4976383;28;20053;-77
2021/09/22 06:32:44;;;;;;;13.83;9.97;;;;;;;8.03;92.01;97412.09;4992282;28;20027;-77
2021/09/22 06:35:16;;;;;;;14.20;10.77;;;;;;;8.03;90.35;97414.72;4984634;28;20043;-77
2021/09/22 06:37:53;;;;;;;14.90;10.53;;;;;;;8.30;90.43;97405.72;4964300;28;20034;-78
2021/09/22 06:40:23;;;;;;;15.00;11.00;;;;;;;8.33;89.14;97411.56;4969558;28;20037;-77
2021/09/22 06:42:53;;;;;;;17.07;11.63;;;;;;;8.72;87.62;97417.38;4993869;28;20058;-77
2021/09/22 06:45:22;;;;;;;17.47;10.97;;;;;;;8.39;89.73;97428.66;4974153;28;20061;-77
2021/09/22 06:47:50;;;;;;;15.63;10.83;;;;;;;8.72;89.46;97423.47;4963960;28;20314;-77
2021/09/22 06:50:16;;;;;;;17.67;11.07;;;;;;;9.02;87.69;97422.03;4997026;28;20030;-76
2021/09/22 06:52:42;;;;;;;14.43;10.73;;;;;;;9.74;83.09;97415.44;4978433;28;20033;-78
2021/09/22 06:55:08;;;;;;;17.50;11.93;;;;;;;9.89;81.55;97411.53;4994010;28;20029;-78
2021/09/22 06:57:34;;;;;;;14.73;11.63;;;;;;;10.02;82.33;97414.81;4983501;28;20401;-78
2021/09/22 07:00:00;;;;;;;13.77;10.87;;;;;;;10.44;78.99;97414.03;4966137;28;20030;-77
2021/09/22 07:02:26;;;;;;;15.60;10.80;;;;;;;10.67;79.53;97423.44;4980957;28;20527;-78
2021/09/22 07:04:52;;;;;;;15.30;11.17;;;;;;;11.31;76.25;97415.22;4971057;28;20067;-78
2021/09/22 07:07:17;;;;;;;15.23;11.60;;;;;;;11.54;75.29;97421.13;4982916;28;20058;-75
2021/09/22 07:09:43;;;;;;;16.90;11.40;;;;;;;11.87;73.97;97421.75;4976801;28;20022;-77
2021/09/22 07:12:09;;;;;;;16.10;11.07;;;;;;;11.68;73.79;97416.41;4992224;28;20046;-77
2021/09/22 07:14:34;;;;;;;16.57;11.70;;;;;;;12.20;70.29;97414.34;4950462;28;20080;-80
2021/09/22 07:17:00;;;;;;;14.73;10.77;;;;;;;11.94;73.78;97412.31;4981428;28;20027;-78
2021/09/22 07:19:27;;;;;;;14.77;10.17;;;;;;;12.26;72.13;97413.81;4956793;28;20079;-77
2021/09/22 07:21:55;;;;;;;15.30;12.00;;;;;;;11.73;73.17;97424.72;4976324;28;20038;-77
2021/09/22 07:24:21;;;;;;;15.17;11.30;;;;;;;11.71;73.45;97424.88;4981279;28;20456;-77
2021/09/22 07:26:47;;;;;;;17.77;11.30;;;;;;;12.06;72.54;97420.06;4994556;28;20520;-78
2021/09/22 07:29:13;;;;;;;15.33;10.57;;;;;;;12.29;71.68;97424.06;4983953;28;20673;-78
2021/09/22 07:31:39;;;;;;;12.83;10.57;;;;;;;12.19;72.55;97420.63;4973197;28;20755;-78
2021/09/22 07:34:04;;;;;;;16.07;11.50;;;;;;;12.15;74.32;97420.06;4997184;28;20028;-77
2021/09/22 07:36:31;;;;;;;15.60;11.13;;;;;;;12.47;72.67;97419.75;4967135;28;20047;-78
2021/09/22 07:38:56;;;;;;;15.50;11.33;;;;;;;12.82;75.87;97426.19;4971093;28;20026;-77
2021/09/22 07:41:23;;;;;;;12.40;9.90;;;;;;;12.74;78.05;97436.59;4990554;28;20027;-78
2021/09/22 07:43:49;;;;;;;12.07;9.87;;;;;;;12.76;76.96;97425.94;4983289;28;20022;-78
2021/09/22 07:46:15;;;;;;;15.33;11.83;;;;;;;12.58;77.51;97424.03;4982520;28;20097;-78
2021/09/22 07:48:41;;;;;;;14.50;11.67;;;;;;;12.73;76.88;97422.59;4985794;28;20033;-78
2021/09/22 07:51:06;;;;;;;12.43;10.17;;;;;;;13.25;75.49;97418.69;4999941;28;20437;-78
2021/09/22 07:53:32;;;;;;;13.90;11.13;;;;;;;13.38;74.72;97421.78;4981538;28;20064;-77
2021/09/22 07:55:58;;;;;;;13.40;9.70;;;;;;;13.39;76.67;97420.81;4983167;28;20399;-78
2021/09/22 07:58:24;;;;;;;12.33;9.57;;;;;;;12.72;79.07;97422.75;4978838;28;20014;-78
2021/09/22 08:00:50;;;;;;;16.67;10.83;;;;;;;13.32;76.08;97420.59;4987353;28;20026;-77
2021/09/22 08:03:16;;;;;;;12.80;10.93;;;;;;;13.82;74.88;97417.50;4996333;28;20022;-77
2021/09/22 08:05:42;;;;;;;12.10;10.20;;;;;;;13.55;75.92;97418.38;4973230;28;20034;-79
2021/09/22 08:08:08;;;;;;;12.23;10.10;;;;;;;13.76;75.33;97412.78;4984890;28;20038;-78
2021/09/22 08:10:36;;;;;;;10.63;8.70;;;;;;;14.17;74.44;97410.50;4984981;28;20090;-76
2021/09/22 08:13:03;;;;;;;13.87;10.70;;;;;;;13.97;73.65;97409.84;4968840;28;20022;-76
2021/09/22 08:15:29;;;;;;;14.23;10.83;;;;;;;14.06;71.89;97403.66;4983818;28;20035;-78
2021/09/22 08:17:55;;;;;;;10.90;9.67;;;;;;;14.29;72.51;97409.31;4989280;28;20018;-78
2021/09/22 08:20:21;;;;;;;12.90;10.87;;;;;;;14.42;71.71;97418.63;4992767;28;20038;-78
2021/09/22 08:22:48;;;;;;;16.40;10.17;;;;;;;14.49;71.98;97417.88;4990285;28;20038;-78
2021/09/22 08:25:14;;;;;;;12.67;9.50;;;;;;;14.85;71.20;97410.69;4998262;28;20038;-78
2021/09/22 08:27:41;;;;;;;13.30;9.80;;;;;;;15.04;69.95;97416.75;4983238;28;20053;-77
2021/09/22 08:30:08;;;;;;;12.57;9.80;;;;;;;15.29;68.42;97418.53;4979367;28;20019;-78
2021/09/22 08:32:35;;;;;;;12.77;10.10;;;;;;;15.97;64.94;97406.13;5004916;28;20046;-78
2021/09/22 08:35:01;;;;;;;12.45;9.57;;;;;;;15.68;62.50;97417.16;4983631;28;20039;-77
2021/09/22 08:37:27;;;;;;;11.88;9.43;;;;;;;16.44;57.53;97413.44;5006775;28;20033;-78
2021/09/22 08:39:54;;;;;;;11.15;8.70;;;;;;;16.42;56.77;97421.53;4983585;28;20035;-79
2021/09/22 08:42:20;;;;;;;10.30;8.52;;;;;;;17.20;53.08;97417.44;4992185;28;20030;-78
2021/09/22 08:44:49;;;;;;;11.50;8.70;;;;;;;16.94;53.46;97420.34;4982452;28;20042;-77
2021/09/22 08:47:15;;;;;;;13.75;9.25;;;;;;;16.86;54.15;97415.03;5001219;28;20038;-78
2021/09/22 08:49:41;;;;;;;11.02;8.65;;;;;;;17.58;53.07;97415.78;4992219;28;20034;-77
2021/09/22 08:52:08;;;;;;;10.50;8.07;;;;;;;17.57;52.14;97416.78;5004525;28;20050;-78
2021/09/22 08:54:34;;;;;;;8.02;6.85;;;;;;;18.24;50.96;97418.03;4995145;28;20026;-78
2021/09/22 08:57:00;;;;;;;9.88;6.85;;;;;;;17.79;51.43;97415.19;4981702;28;20042;-77
2021/09/22 08:59:27;;;;;;;10.70;7.97;;;;;;;18.91;50.49;97419.94;4976606;28;20043;-78
2021/09/22 09:02:08;;;;;;;9.20;7.30;;;;;;;18.96;50.12;97415.72;4999062;28;20039;-77
2021/09/22 09:04:35;;;;;;;8.23;6.43;;;;;;;19.27;46.73;97422.72;4977766;28;20058;-77
2021/09/22 09:07:00;;;;;;;9.77;6.35;;;;;;;18.19;48.58;97420.41;4973018;28;20026;-76
2021/09/22 09:09:38;;;;;;;9.07;6.80;;;;;;;17.81;51.72;97421.16;4952753;28;20026;-77
2021/09/22 09:12:16;;;;;;;9.98;6.90;;;;;;;18.29;52.61;97415.69;4999052;28;20026;-77
2021/09/22 09:14:56;;;;;;;13.30;10.82;;;;;;;19.01;50.54;97410.69;4978549;28;20038;-77
2021/09/22 09:17:50;;;;;;;10.82;6.72;;;;;;;18.49;47.11;97410.69;4977543;28;20034;-76
2021/09/22 09:20:21;;;;;;;8.02;5.18;;;;;;;18.29;46.96;97410.34;4964672;28;20034;-77
2021/09/22 09:23:00;;;;;;;6.93;3.97;;;;;;;20.12;43.51;97400.75;4982890;28;20027;-78
2021/09/22 09:25:27;;;;;;;5.68;4.05;;;;;;;20.06;41.67;97406.84;4985098;28;20038;-78
2021/09/22 09:27:53;;;;;;;8.70;4.50;;;;;;;19.29;43.98;97410.03;4974638;28;20484;-78
2021/09/22 09:30:21;;;;;;;6.63;4.03;;;;;;;20.09;44.61;97405.66;4980217;28;20081;-78
2021/09/22 09:32:48;;;;;;;5.38;2.95;;;;;;;20.32;42.81;97406.28;4987852;28;20486;-78
2021/09/22 09:35:17;;;;;;;5.68;3.60;;;;;;;20.19;43.22;97404.31;4995333;28;20047;-78
2021/09/22 09:37:49;;;;;;;6.95;4.10;;;;;;;20.65;43.14;97411.06;4970790;28;20547;-78
2021/09/22 09:40:31;;;;;;;6.97;4.40;;;;;;;21.26;42.06;97405.94;4980879;28;20084;-78
2021/09/22 09:43:05;;;;;;;8.32;5.18;;;;;;;21.24;40.80;97413.31;4964710;28;20089;-78
2021/09/22 09:45:37;;;;;;;7.57;5.45;;;;;;;20.49;41.82;97410.31;4965411;28;20034;-78
2021/09/22 09:48:09;;;;;;;7.53;5.50;;;;;;;19.85;44.42;97413.00;4966712;28;20094;-78
2021/09/22 09:50:42;;;;;;;6.50;4.85;;;;;;;19.97;45.98;97418.66;5000583;28;20031;-78
2021/09/22 09:53:08;;;;;;;8.00;5.30;;;;;;;20.59;44.50;97411.84;4972415;28;20035;-78
2021/09/22 09:55:38;;;;;;;6.50;5.05;;;;;;;20.28;45.38;97402.31;4997661;28;20030;-78
2021/09/22 09:58:04;;;;;;;8.50;5.45;;;;;;;19.74;45.88;97400.13;4997620;28;20425;-78
2021/09/22 10:00:39;;;;;;;7.07;4.85;;;;;;;20.77;44.55;97390.81;4988808;28;20069;-78
2021/09/22 10:03:31;;;;;;;7.20;5.03;;;;;;;20.99;44.30;97388.88;4965080;28;20496;-78
2021/09/22 10:05:58;;;;;;;6.55;5.03;;;;;;;20.44;44.51;97377.16;4978023;28;20244;-78
2021/09/22 10:08:25;;;;;;;8.52;5.93;;;;;;;21.11;45.21;97381.13;4963491;28;20098;-78
2021/09/22 10:10:53;;;;;;;6.25;4.45;;;;;;;21.77;44.10;97368.06;4978356;28;20120;-78
2021/09/22 10:13:19;;;;;;;7.95;5.40;;;;;;;22.11;42.77;97363.56;4978114;28;20053;-78
2021/09/22 10:15:47;;;;;;;7.80;4.78;;;;;;;22.21;43.49;97361.34;4975938;28;20038;-78
2021/09/22 10:18:14;;;;;;;6.35;4.95;;;;;;;21.50;44.09;97364.47;4976559;28;20026;-78
2021/09/22 10:20:42;;;;;;;7.55;4.38;;;;;;;21.84;43.82;97363.53;4981660;28;20035;-80
2021/09/22 10:23:09;;;;;;;15.52;12.07;;;;;;;23.24;41.83;97350.91;4981868;28;20019;-78
2021/09/22 10:25:36;;;;;;;8.02;4.50;;;;;;;22.31;41.98;97345.69;4980840;28;20031;-78
2021/09/22 10:28:03;;;;;;;9.95;5.28;;;;;;;21.57;43.17;97348.44;4971928;28;20046;-78
2021/09/22 10:30:39;;;;;;;10.35;7.57;;;;;;;21.71;44.02;97349.28;4989456;28;20137;-78
2021/09/22 10:33:23;;;;;;;9.05;7.03;;;;;;;22.57;42.19;97335.97;4986319;28;20038;-78
2021/09/22 10:36:01;;;;;;;7.32;4.13;;;;;;;22.29;43.73;97342.38;4970488;28;20030;-78
2021/09/22 10:38:26;;;;;;;5.82;3.92;;;;;;;21.79;43.82;97347.22;4970987;28;20022;-79
2021/09/22 10:40:58;;;;;;;7.45;4.07;;;;;;;19.45;49.00;97352.97;4995003;28;20506;-79
2021/09/22 10:43:26;;;;;;;7.68;3.53;;;;;;;20.01;50.11;97345.16;4986970;28;20027;-79
2021/09/22 10:46:10;;;;;;;11.05;7.63;;;;;;;20.85;47.58;97342.53;4964824;28;20026;-79
2021/09/22 10:48:38;;;;;;;10.93;7.05;;;;;;;20.87;48.37;97353.84;4984775;28;20093;-79
2021/09/22 10:51:07;;;;;;;9.30;5.68;;;;;;;19.43;51.05;97345.16;4971468;28;20113;-80
2021/09/22 10:53:33;;;;;;;8.75;4.40;;;;;;;18.49;53.11;97350.25;4980451;28;20469;-79
2021/09/22 10:56:14;;;;;;;5.72;3.22;;;;;;;19.23;51.56;97347.59;4973414;28;20026;-78
2021/09/22 10:58:46;;;;;;;8.25;3.00;;;;;;;20.62;48.03;97339.28;4986314;28;20041;-79
2021/09/22 11:01:32;;;;;;;6.60;3.30;;;;;;;19.44;50.56;97336.13;4985427;28;20404;-80
2021/09/22 11:04:01;;;;;;;5.93;3.67;;;;;;;18.71;52.43;97339.69;4987685;28;20031;-80
2021/09/22 11:06:45;;;;;;;6.80;3.10;;;;;;;18.88;52.23;97333.22;4957205;28;20069;-79
2021/09/22 11:09:17;;;;;;;6.05;3.50;;;;;;;20.22;48.75;97328.28;4955256;28;20176;-80
2021/09/22 11:11:55;;;;;;;7.73;3.40;;;;;;;20.55;48.30;97328.56;4971566;28;20039;-80
2021/09/22 11:14:30;;;;;;;7.30;3.05;;;;;;;20.78;47.19;97330.16;4956093;28;20105;-79
2021/09/22 11:17:11;;;;;;;6.30;3.08;;;;;;;20.46;48.46;97319.84;5000728;28;20053;-78
2021/09/22 11:19:38;;;;;;;4.18;2.20;;;;;;;20.02;47.50;97318.28;4986726;28;20034;-79
2021/09/22 11:22:08;;;;;;;4.75;2.78;;;;;;;19.54;49.17;97319.81;4985177;28;20031;-80
2021/09/22 11:24:34;;;;;;;4.63;2.28;;;;;;;19.96;48.81;97319.03;4992389;28;20065;-80
2021/09/22 11:27:06;;;;;;;4.25;2.08;;;;;;;20.71;47.22;97319.41;4972513;28;20488;-80
2021/09/22 11:29:51;;;;;;;4.63;2.40;;;;;;;20.24;47.81;97310.22;4969949;28;20031;-80
2021/09/22 11:32:29;;;;;;;4.47;2.13;;;;;;;20.47;48.38;97313.47;4976644;28;20474;-79
2021/09/22 11:35:17;;;;;;;5.80;3.03;;;;;;;20.57;48.28;97312.34;5003370;28;20121;-80
2021/09/22 11:37:51;;;;;;;5.47;3.10;;;;;;;21.38;46.11;97302.66;4965637;28;20118;-79
2021/09/22 11:40:31;;;;;;;5.90;3.15;;;;;;;20.63;46.35;97298.19;4969779;28;20031;-80